createdAt,value
2017-10-24T01:49:25.040Z,101941
2017-10-24T01:51:53.239Z,101941
2017-10-24T01:54:21.421Z,101935
2017-10-24T01:56:49.584Z,101940
2017-10-24T01:59:17.834Z,101944
2017-10-24T02:01:46.024Z,101949
2017-10-24T02:04:15.003Z,101954
2017-10-24T02:06:43.532Z,101947
2017-10-24T02:09:12.444Z,101959
2017-10-24T02:11:40.631Z,101954
2017-10-24T02:14:08.857Z,101964
2017-10-24T02:16:37.047Z,101963
2017-10-24T02:19:05.255Z,101971
2017-10-24T02:21:33.442Z,101979
2017-10-24T02:24:02.387Z,101979
2017-10-24T02:26:30.662Z,101980
2017-10-24T02:28:58.876Z,101977
2017-10-24T02:31:27.054Z,101974
2017-10-24T02:33:56.023Z,101970
2017-10-24T02:36:24.263Z,101972
2017-10-24T02:38:52.457Z,101979
2017-10-24T02:41:20.664Z,101978
2017-10-24T02:43:48.846Z,101978
2017-10-24T02:46:17.815Z,101984
2017-10-24T02:48:46.141Z,101987
2017-10-24T02:51:14.349Z,101986
2017-10-24T02:53:42.575Z,101978
2017-10-24T02:56:10.782Z,101980
2017-10-24T02:58:39.008Z,101981
2017-10-24T03:01:08.027Z,101983
2017-10-24T03:03:36.220Z,101991
2017-10-24T03:06:04.507Z,101998
2017-10-24T03:08:32.723Z,101992
2017-10-24T03:11:01.739Z,101988
2017-10-24T03:13:29.947Z,101982
2017-10-24T03:15:58.255Z,101988
2017-10-24T03:18:26.436Z,101984
2017-10-24T03:20:55.365Z,101981
2017-10-24T03:23:23.546Z,101971
2017-10-24T03:25:51.740Z,101972
2017-10-24T03:28:19.945Z,101972
2017-10-24T03:30:48.954Z,101979
2017-10-24T03:33:17.210Z,101976
2017-10-24T03:35:45.417Z,101982
2017-10-24T03:38:13.623Z,101984
2017-10-24T03:40:41.854Z,101984
2017-10-24T03:43:10.058Z,101984
2017-10-24T03:45:38.266Z,101987
2017-10-24T03:48:06.461Z,101980
2017-10-24T03:50:35.452Z,101977
2017-10-24T03:53:04.450Z,101974
2017-10-24T03:55:32.693Z,101984
2017-10-24T03:58:00.907Z,101977
2017-10-24T04:00:29.100Z,101982
2017-10-24T04:02:57.322Z,101970
2017-10-24T04:05:25.519Z,101981
2017-10-24T04:07:54.470Z,101976
2017-10-24T04:10:22.647Z,101976
2017-10-24T04:12:50.923Z,101976
2017-10-24T04:15:19.172Z,101987
2017-10-24T04:17:47.388Z,101977
2017-10-24T04:20:15.726Z,101970
2017-10-24T04:22:43.932Z,101977
2017-10-24T04:25:12.167Z,101962
2017-10-24T04:27:40.400Z,101968
2017-10-24T04:30:09.398Z,101971
2017-10-24T04:32:38.392Z,101974
2017-10-24T04:35:07.344Z,101989
2017-10-24T04:37:36.413Z,101978
2017-10-24T04:40:05.090Z,101980
2017-10-24T04:42:33.336Z,101983
2017-10-24T04:45:02.321Z,101984
2017-10-24T04:47:31.324Z,101986
2017-10-24T04:50:00.283Z,101987
2017-10-24T04:52:28.515Z,101976
2017-10-24T04:54:56.734Z,101986
2017-10-24T04:57:24.934Z,101981
2017-10-24T04:59:53.171Z,101987
2017-10-24T05:02:21.394Z,101969
2017-10-24T05:04:49.721Z,101972
2017-10-24T05:07:17.921Z,101981
2017-10-24T05:09:46.872Z,101993
2017-10-24T05:12:15.075Z,102000
2017-10-24T05:14:43.287Z,102004
2017-10-24T05:17:11.502Z,101989
2017-10-24T05:19:39.707Z,101996
2017-10-24T05:22:08.683Z,102000
2017-10-24T05:24:36.908Z,102001
2017-10-24T05:27:05.220Z,101993
2017-10-24T05:29:33.533Z,101987
2017-10-24T05:32:02.508Z,101992
2017-10-24T05:34:30.754Z,101985
2017-10-24T05:36:58.968Z,102001
2017-10-24T05:39:28.042Z,101999
2017-10-24T05:41:56.239Z,101998
2017-10-24T05:44:25.232Z,101997
2017-10-24T05:46:54.227Z,102002
2017-10-24T05:49:23.326Z,101995
2017-10-24T05:51:52.268Z,101994
2017-10-24T05:54:20.558Z,102002
2017-10-24T05:56:48.830Z,102001
2017-10-24T05:59:17.055Z,102003
2017-10-24T06:01:45.320Z,102001
2017-10-24T06:04:13.551Z,102006
2017-10-24T06:06:41.760Z,101995
2017-10-24T06:09:10.695Z,101993
2017-10-24T06:11:38.957Z,101987
2017-10-24T06:14:07.167Z,102001
2017-10-24T06:16:35.391Z,102003
2017-10-24T06:19:03.583Z,102002
2017-10-24T06:21:31.807Z,101991
2017-10-24T06:24:00.008Z,101988
2017-10-24T06:26:28.231Z,101982
2017-10-24T06:28:56.429Z,101984
2017-10-24T06:31:25.401Z,101978
2017-10-24T06:33:53.724Z,101979
2017-10-24T06:36:21.961Z,101976
2017-10-24T06:38:50.320Z,101979
2017-10-24T06:41:18.516Z,101977
2017-10-24T06:43:46.716Z,101992
2017-10-24T06:46:14.951Z,101993
2017-10-24T06:48:43.169Z,101983
2017-10-24T06:51:11.446Z,101989
2017-10-24T06:53:39.661Z,101992
2017-10-24T06:56:08.022Z,101990
2017-10-24T06:58:36.302Z,101994
2017-10-24T07:01:04.553Z,101995
2017-10-24T07:03:32.763Z,102000
2017-10-24T07:06:00.937Z,102003
2017-10-24T07:08:29.139Z,101998
2017-10-24T07:10:57.382Z,102008
2017-10-24T07:13:25.700Z,101996
2017-10-24T07:15:54.653Z,101989
2017-10-24T07:18:22.855Z,102001
2017-10-24T07:20:51.058Z,101999
2017-10-24T07:23:19.306Z,102001
2017-10-24T07:25:48.263Z,101993
2017-10-24T07:28:16.445Z,102007
2017-10-24T07:30:44.635Z,102003
2017-10-24T07:33:12.810Z,102011
2017-10-24T07:35:41.002Z,101999
2017-10-24T07:38:09.954Z,102005
2017-10-24T07:40:38.148Z,102002
2017-10-24T07:43:06.355Z,102008
2017-10-24T07:45:34.526Z,102004
2017-10-24T07:48:02.799Z,101990
2017-10-24T07:50:31.014Z,101993
2017-10-24T07:52:59.229Z,101995
2017-10-24T07:55:27.462Z,101994
2017-10-24T07:57:55.796Z,101979
2017-10-24T08:00:24.009Z,101977
2017-10-24T08:02:52.268Z,101965
2017-10-24T08:05:20.454Z,101983
2017-10-24T08:07:48.708Z,101981
2017-10-24T08:10:16.950Z,101980
2017-10-24T08:12:45.989Z,101982
2017-10-24T08:15:14.189Z,101999
2017-10-24T08:17:42.379Z,101997
2017-10-24T08:20:10.556Z,101992
2017-10-24T08:22:39.545Z,101996
2017-10-24T08:25:07.741Z,101991
2017-10-24T08:27:37.003Z,101986
2017-10-24T08:30:05.189Z,101983
2017-10-24T08:32:33.379Z,101968
2017-10-24T08:35:02.373Z,101951
2017-10-24T08:37:31.359Z,101964
2017-10-24T08:40:00.590Z,101961
2017-10-24T08:42:28.801Z,101949
2017-10-24T08:44:57.000Z,101938
2017-10-24T08:47:25.961Z,101933
2017-10-24T08:49:54.222Z,101944
2017-10-24T08:52:22.417Z,101942
2017-10-24T08:54:50.600Z,101935
2017-10-24T08:57:18.773Z,101934
2017-10-24T08:59:46.972Z,101931
2017-10-24T09:02:15.950Z,101927
2017-10-24T09:04:44.278Z,101945
2017-10-24T09:07:28.211Z,101943
2017-10-24T09:09:56.455Z,101941
2017-10-24T09:12:25.431Z,101941
2017-10-24T09:14:53.642Z,101934
2017-10-24T09:17:39.637Z,101941
2017-10-24T09:20:09.336Z,101953
2017-10-24T09:22:37.533Z,101941
2017-10-24T09:25:05.742Z,101941
2017-10-24T09:27:34.922Z,101945
2017-10-24T09:30:03.153Z,101944
2017-10-24T09:32:46.228Z,101935
2017-10-24T09:35:14.443Z,101939
2017-10-24T09:37:42.634Z,101943
2017-10-24T09:40:10.847Z,101951
2017-10-24T09:42:39.092Z,101948
2017-10-24T09:45:07.287Z,101945
2017-10-24T09:47:35.503Z,101939
2017-10-24T09:50:04.429Z,101948
2017-10-24T09:52:32.627Z,101929
2017-10-24T09:55:00.814Z,101927
2017-10-24T09:57:29.001Z,101935
2017-10-24T09:59:57.963Z,101933
2017-10-24T10:02:26.180Z,101929
2017-10-24T10:04:55.140Z,101934
2017-10-24T10:07:23.335Z,101936
2017-10-24T10:09:52.291Z,101929
2017-10-24T10:12:20.524Z,101927
2017-10-24T10:14:48.748Z,101912
2017-10-24T10:17:16.963Z,101925
2017-10-24T10:19:46.286Z,101922
2017-10-24T10:22:14.475Z,101919
2017-10-24T10:24:42.713Z,101923
2017-10-24T10:27:11.071Z,101919
2017-10-24T10:29:39.309Z,101920
2017-10-24T10:32:07.491Z,101917
2017-10-24T10:34:35.945Z,101913
2017-10-24T10:37:04.140Z,101912
2017-10-24T10:39:32.317Z,101901
2017-10-24T10:42:00.511Z,101900
2017-10-24T10:44:28.736Z,101893
2017-10-24T10:46:56.909Z,101900
2017-10-24T10:49:25.110Z,101896
2017-10-24T10:51:53.335Z,101893
2017-10-24T10:54:21.523Z,101895
2017-10-24T10:56:49.710Z,101897
2017-10-24T10:59:17.913Z,101902
2017-10-24T11:01:46.106Z,101888
2017-10-24T11:04:15.162Z,101891
2017-10-24T11:06:43.398Z,101888
2017-10-24T11:09:11.588Z,101883
2017-10-24T11:11:39.788Z,101882
2017-10-24T11:14:08.051Z,101874
2017-10-24T11:16:36.360Z,101869
2017-10-24T11:19:04.599Z,101858
2017-10-24T11:21:32.812Z,101860
2017-10-24T11:24:01.023Z,101854
2017-10-24T11:26:29.231Z,101859
2017-10-24T11:28:57.888Z,101854
2017-10-24T11:31:26.135Z,101848
2017-10-24T11:33:54.392Z,101850
2017-10-24T11:36:22.939Z,101841
2017-10-24T11:38:51.158Z,101837
2017-10-24T11:41:20.112Z,101841
2017-10-24T11:43:48.300Z,101836
2017-10-24T11:46:16.480Z,101833
2017-10-24T11:48:44.695Z,101824
2017-10-24T11:51:12.862Z,101818
2017-10-24T11:53:41.095Z,101823
2017-10-24T11:56:09.299Z,101815
2017-10-24T11:58:38.300Z,101810
2017-10-24T12:01:06.499Z,101815
2017-10-24T12:03:34.684Z,101816
2017-10-24T12:06:02.888Z,101824
2017-10-24T12:08:31.081Z,101823
2017-10-24T12:11:00.061Z,101823
2017-10-24T12:13:28.252Z,101823
2017-10-24T12:15:56.495Z,101821
2017-10-24T12:18:24.680Z,101819
2017-10-24T12:20:52.872Z,101819
2017-10-24T12:23:21.838Z,101817
2017-10-24T12:25:50.023Z,101818
2017-10-24T12:28:19.010Z,101805
2017-10-24T12:30:47.225Z,101809
2017-10-24T12:33:15.711Z,101800
2017-10-24T12:35:43.918Z,101806
2017-10-24T12:38:12.118Z,101804
2017-10-24T12:40:41.074Z,101802
2017-10-24T12:43:09.281Z,101799
2017-10-24T12:45:38.403Z,101789
2017-10-24T12:48:06.583Z,101798
2017-10-24T12:50:36.161Z,101793
2017-10-24T12:53:05.165Z,101796
2017-10-24T12:55:34.424Z,101798
2017-10-24T12:58:08.625Z,101796
2017-10-24T13:00:36.858Z,101790
2017-10-24T13:03:05.088Z,101793
2017-10-24T13:05:33.276Z,101776
2017-10-24T13:08:02.301Z,101777
2017-10-24T13:10:30.537Z,101776
2017-10-24T13:12:58.757Z,101775
2017-10-24T13:15:27.776Z,101766
2017-10-24T13:17:56.436Z,101772
2017-10-24T13:20:24.678Z,101769
2017-10-24T13:22:53.667Z,101768
2017-10-24T13:25:22.690Z,101772
2017-10-24T13:27:50.880Z,101771
2017-10-24T13:30:19.072Z,101773
2017-10-24T13:35:41.643Z,101770
2017-10-24T13:38:09.831Z,101766
2017-10-24T13:40:38.803Z,101777
2017-10-24T13:43:07.005Z,101762
2017-10-24T13:45:36.014Z,101766
2017-10-24T13:48:04.207Z,101761
2017-10-24T13:50:32.497Z,101764
2017-10-24T13:53:00.706Z,101760
2017-10-24T13:55:29.190Z,101750
2017-10-24T13:57:57.413Z,101751
2017-10-24T14:00:25.659Z,101753
2017-10-24T14:02:54.734Z,101759
2017-10-24T14:05:29.315Z,101739
2017-10-24T14:08:03.213Z,101738
2017-10-24T14:10:37.006Z,101744
2017-10-24T14:13:05.198Z,101743
2017-10-24T14:15:33.438Z,101741
2017-10-24T14:18:01.827Z,101743
2017-10-24T14:20:30.092Z,101732
2017-10-24T14:22:58.331Z,101730
2017-10-24T14:25:26.548Z,101735
2017-10-24T14:27:54.806Z,101724
2017-10-24T14:30:23.851Z,101728
2017-10-24T14:32:52.146Z,101735
2017-10-24T14:35:21.139Z,101728
2017-10-24T14:37:49.352Z,101719
2017-10-24T14:40:18.880Z,101712
2017-10-24T14:42:47.482Z,101708
2017-10-24T14:45:15.668Z,101692
2017-10-24T14:47:43.891Z,101696
2017-10-24T14:50:12.114Z,101686
2017-10-24T14:52:40.339Z,101676
2017-10-24T14:55:08.694Z,101665
2017-10-24T14:57:37.647Z,101658
2017-10-24T15:00:05.940Z,101652
2017-10-24T15:02:34.114Z,101648
2017-10-24T15:05:02.367Z,101652
2017-10-24T15:07:30.589Z,101662
2017-10-24T15:09:59.531Z,101665
2017-10-24T15:12:27.889Z,101652
2017-10-24T15:14:56.162Z,101601
2017-10-24T15:17:24.466Z,101575
2017-10-24T15:19:53.643Z,101580
2017-10-24T15:22:21.898Z,101576
2017-10-24T15:24:50.859Z,101591
2017-10-24T15:27:19.839Z,101602
2017-10-24T15:29:48.048Z,101625
2017-10-24T15:32:16.238Z,101628
2017-10-24T15:34:44.422Z,101619
2017-10-24T15:37:12.606Z,101593
2017-10-24T15:39:40.899Z,101570
2017-10-24T15:42:09.140Z,101589
2017-10-24T15:44:37.326Z,101581
2017-10-24T15:47:05.539Z,101571
2017-10-24T15:49:33.715Z,101581
2017-10-24T15:52:02.665Z,101577
2017-10-24T15:54:30.945Z,101595
2017-10-24T15:56:59.230Z,101587
2017-10-24T15:59:27.496Z,101589
2017-10-24T16:01:55.719Z,101606
2017-10-24T16:04:24.730Z,101597
2017-10-24T16:06:52.974Z,101604
2017-10-24T16:09:21.945Z,101616
2017-10-24T16:11:50.183Z,101625
2017-10-24T16:14:18.366Z,101634
2017-10-24T16:16:46.578Z,101644
2017-10-24T16:19:15.153Z,101636
2017-10-24T16:21:43.492Z,101636
2017-10-24T16:24:11.674Z,101623
2017-10-24T16:26:39.913Z,101617
2017-10-24T16:29:08.868Z,101621
2017-10-24T16:31:37.065Z,101620
2017-10-24T16:34:06.072Z,101609
2017-10-24T16:36:34.287Z,101614
2017-10-24T16:39:04.704Z,101603
2017-10-24T16:41:32.921Z,101602
2017-10-24T16:44:02.028Z,101596
2017-10-24T16:46:30.284Z,101591
2017-10-24T16:48:58.568Z,101607
2017-10-24T16:51:27.583Z,101600
2017-10-24T16:53:56.548Z,101603
2017-10-24T16:56:24.841Z,101598
2017-10-24T16:58:53.077Z,101600
2017-10-24T17:01:21.447Z,101600
2017-10-24T17:03:49.667Z,101603
2017-10-24T17:06:18.662Z,101601
2017-10-24T17:08:48.170Z,101596
2017-10-24T17:11:17.129Z,101604
2017-10-24T17:13:45.338Z,101606
2017-10-24T17:16:13.584Z,101596
2017-10-24T17:18:41.793Z,101604
2017-10-24T17:21:09.994Z,101614
2017-10-24T17:23:38.152Z,101603
2017-10-24T17:26:06.342Z,101602
2017-10-24T17:28:34.835Z,101597
2017-10-24T17:31:03.092Z,101591
2017-10-24T17:33:31.293Z,101596
2017-10-24T17:35:59.494Z,101606
2017-10-24T17:38:27.828Z,101600
2017-10-24T17:40:56.215Z,101606
2017-10-24T17:43:24.596Z,101604
2017-10-24T17:45:52.795Z,101596
2017-10-24T17:48:21.752Z,101596
2017-10-24T17:50:49.947Z,101588
2017-10-24T17:53:18.184Z,101592
2017-10-24T17:55:46.391Z,101594
2017-10-24T17:58:14.572Z,101605
2017-10-24T18:00:43.523Z,101608
2017-10-24T18:03:11.727Z,101609
2017-10-24T18:05:40.943Z,101596
2017-10-24T18:08:09.240Z,101591
2017-10-24T18:10:38.178Z,101600
2017-10-24T18:13:06.491Z,101607
2017-10-24T18:15:36.558Z,101605
2017-10-24T18:18:04.789Z,101596
2017-10-24T18:20:33.817Z,101594
2017-10-24T18:23:02.030Z,101585
2017-10-24T18:25:30.317Z,101583
2017-10-24T18:27:58.493Z,101581
2017-10-24T18:30:26.732Z,101572
2017-10-24T18:32:55.056Z,101563
2017-10-24T18:35:23.280Z,101554
2017-10-24T18:37:51.502Z,101553
2017-10-24T18:40:20.494Z,101556
2017-10-24T18:42:49.480Z,101557
2017-10-24T18:45:18.484Z,101549
2017-10-24T18:47:47.473Z,101539
2017-10-24T18:50:16.482Z,101536
2017-10-24T18:52:44.776Z,101531
2017-10-24T18:55:14.660Z,101535
2017-10-24T18:57:48.563Z,101523
2017-10-24T19:00:16.777Z,101531
2017-10-24T19:02:45.752Z,101536
2017-10-24T19:05:13.987Z,101524
2017-10-24T19:07:42.207Z,101526
2017-10-24T19:10:10.428Z,101517
2017-10-24T19:12:38.701Z,101512
2017-10-24T19:15:06.945Z,101507
2017-10-24T19:17:35.166Z,101505
2017-10-24T19:20:04.141Z,101498
2017-10-24T19:22:32.429Z,101500
2017-10-24T19:25:01.435Z,101507
2017-10-24T19:27:30.426Z,101498
2017-10-24T19:29:58.692Z,101498
2017-10-24T19:32:27.656Z,101490
2017-10-24T19:34:55.910Z,101497
2017-10-24T19:37:24.180Z,101490
2017-10-24T19:39:52.751Z,101487
2017-10-24T19:42:21.043Z,101491
2017-10-24T19:44:49.269Z,101493
2017-10-24T19:47:18.951Z,101490
2017-10-24T19:49:47.364Z,101486
2017-10-24T19:52:15.670Z,101494
2017-10-24T19:54:44.265Z,101509
2017-10-24T19:57:12.466Z,101500
2017-10-24T19:59:40.687Z,101508
2017-10-24T20:02:08.905Z,101497
2017-10-24T20:04:37.146Z,101491
2017-10-24T20:07:06.211Z,101497
2017-10-24T20:09:35.203Z,101499
2017-10-24T20:12:04.159Z,101496
2017-10-24T20:14:32.348Z,101494
2017-10-24T20:17:00.506Z,101495
2017-10-24T20:19:28.702Z,101486
2017-10-24T20:21:57.859Z,101490
2017-10-24T20:24:26.051Z,101491
2017-10-24T20:26:54.263Z,101494
2017-10-24T20:29:22.469Z,101501
2017-10-24T20:31:50.786Z,101495
2017-10-24T20:34:19.768Z,101496
2017-10-24T20:36:47.975Z,101492
2017-10-24T20:39:16.228Z,101489
2017-10-24T20:41:44.563Z,101479
2017-10-24T20:44:12.816Z,101488
2017-10-24T20:46:41.043Z,101485
2017-10-24T20:49:09.380Z,101484
2017-10-24T20:51:37.716Z,101481
2017-10-24T20:54:06.807Z,101485
2017-10-24T20:56:35.809Z,101490
2017-10-24T20:59:04.772Z,101494
2017-10-24T21:01:33.008Z,101498
2017-10-24T21:04:01.244Z,101494
2017-10-24T21:06:30.238Z,101490
2017-10-24T21:08:59.364Z,101494
2017-10-24T21:11:27.606Z,101497
2017-10-24T21:13:56.571Z,101494
2017-10-24T21:16:24.801Z,101497
2017-10-24T21:18:53.003Z,101498
2017-10-24T21:21:21.235Z,101500
2017-10-24T21:23:50.461Z,101507
2017-10-24T21:26:18.683Z,101498
2017-10-24T21:28:46.904Z,101515
2017-10-24T21:31:15.159Z,101506
2017-10-24T21:33:43.444Z,101506
2017-10-24T21:36:11.670Z,101508
2017-10-24T21:38:40.023Z,101499
2017-10-24T21:41:08.337Z,101497
2017-10-24T21:43:36.678Z,101502
2017-10-24T21:46:04.884Z,101498
2017-10-24T21:48:33.098Z,101495
2017-10-24T21:51:01.300Z,101493
2017-10-24T21:53:29.776Z,101490
2017-10-24T21:55:58.014Z,101482
2017-10-24T21:58:26.306Z,101491
2017-10-24T22:00:54.563Z,101485
2017-10-24T22:03:22.766Z,101487
2017-10-24T22:05:51.227Z,101482
2017-10-24T22:08:19.420Z,101478
2017-10-24T22:10:47.606Z,101478
2017-10-24T22:13:15.818Z,101488
2017-10-24T22:15:44.800Z,101489
2017-10-24T22:18:13.008Z,101481
2017-10-24T22:20:41.200Z,101476
2017-10-24T22:23:09.394Z,101490
2017-10-24T22:25:37.582Z,101487
2017-10-24T22:28:05.830Z,101480
2017-10-24T22:30:34.049Z,101475
2017-10-24T22:33:02.988Z,101472
2017-10-24T22:35:31.263Z,101475
2017-10-24T22:37:59.475Z,101462
2017-10-24T22:40:27.710Z,101464
2017-10-24T22:42:56.299Z,101458
2017-10-24T22:45:24.544Z,101454
2017-10-24T22:47:52.731Z,101456
2017-10-24T22:50:21.013Z,101464
2017-10-24T22:52:49.212Z,101448
2017-10-24T22:55:17.401Z,101449
2017-10-24T22:57:45.615Z,101455
2017-10-24T23:00:13.835Z,101447
2017-10-24T23:02:42.104Z,101442
2017-10-24T23:05:10.299Z,101448
2017-10-24T23:07:38.550Z,101447
2017-10-24T23:10:07.020Z,101456
2017-10-24T23:12:36.003Z,101450
2017-10-24T23:15:04.256Z,101460
2017-10-24T23:17:32.452Z,101454
2017-10-24T23:20:00.649Z,101466
2017-10-24T23:22:28.925Z,101468
2017-10-24T23:24:57.110Z,101467
2017-10-24T23:27:25.320Z,101470
2017-10-24T23:29:54.346Z,101474
2017-10-24T23:32:22.543Z,101477
2017-10-24T23:34:50.753Z,101475
2017-10-24T23:37:20.096Z,101475
2017-10-24T23:39:49.059Z,101483
2017-10-24T23:42:18.040Z,101486
2017-10-24T23:44:47.026Z,101470
2017-10-24T23:47:16.074Z,101481
2017-10-24T23:49:44.299Z,101473
2017-10-24T23:52:13.296Z,101477
2017-10-24T23:54:42.315Z,101488
2017-10-24T23:57:10.518Z,101483
2017-10-24T23:59:38.709Z,101486
